Time;durP1;ratioP1;P1;durP2;ratioP2;P2;SDS_P1;SDS_P2;PMS_P1;PMS_P2;Temp;Humidity;BMP_temperature;BMP_pressure;BME280_temperature;BME280_humidity;BME280_pressure;Samples;Min_cycle;Max_cycle;Signal;HPM_P1;HPM_P2
2021/08/12 00:03:04;;;;;;;8.13;4.30;;;;;;;17.65;65.53;101209.62;5035847;59;21617;-80
2021/08/12 00:08:09;;;;;;;5.33;4.20;;;;;;;17.50;65.45;101206.55;5032619;59;21485;-83
2021/08/12 00:13:15;;;;;;;5.00;4.30;;;;;;;17.38;65.72;101210.41;5031490;59;22501;-84
2021/08/12 00:18:21;;;;;;;5.97;4.33;;;;;;;17.32;65.96;101214.98;5031980;59;21153;-79
2021/08/12 00:23:27;;;;;;;6.10;4.20;;;;;;;17.26;66.06;101227.61;5031494;59;21183;-79
2021/08/12 00:28:32;;;;;;;7.90;4.50;;;;;;;17.09;66.20;101227.86;5031567;58;21245;-81
2021/08/12 00:33:39;;;;;;;6.53;4.40;;;;;;;16.92;66.60;101232.11;5032315;59;21440;-82
2021/08/12 00:38:44;;;;;;;6.47;4.40;;;;;;;16.66;66.96;101232.31;5032184;59;21173;-81
2021/08/12 00:43:50;;;;;;;5.70;5.03;;;;;;;16.45;67.38;101241.78;5031985;59;21165;-81
2021/08/12 00:48:58;;;;;;;7.27;5.30;;;;;;;16.45;68.08;101251.97;5031500;59;21444;-79
2021/08/12 00:54:05;;;;;;;5.63;4.53;;;;;;;16.46;68.05;101248.31;5031222;59;21239;-79
2021/08/12 00:59:11;;;;;;;6.83;5.43;;;;;;;16.57;68.42;101244.66;5030837;59;21454;-79
2021/08/12 01:04:18;;;;;;;10.57;5.30;;;;;;;16.47;68.15;101243.82;5030466;59;21551;-80
2021/08/12 01:10:03;;;;;;;7.80;4.93;;;;;;;16.51;68.78;101239.38;5034954;59;21880;-80
2021/08/12 01:15:15;;;;;;;5.93;4.80;;;;;;;16.56;68.79;101239.45;5034689;58;21278;-81
2021/08/12 01:20:41;;;;;;;6.83;5.23;;;;;;;16.48;68.75;101237.50;5036587;59;21180;-80
2021/08/12 01:25:48;;;;;;;6.00;4.50;;;;;;;16.38;68.85;101239.30;5028817;58;21515;-79
2021/08/12 01:31:49;;;;;;;7.97;4.30;;;;;;;16.38;69.02;101243.30;5029288;59;21253;-83
2021/08/12 01:36:58;;;;;;;5.83;4.80;;;;;;;16.42;69.29;101234.88;5028985;58;21544;-82
2021/08/12 01:42:04;;;;;;;11.00;5.03;;;;;;;16.59;69.54;101241.36;5028398;59;21185;-82
2021/08/12 01:47:12;;;;;;;5.67;5.17;;;;;;;16.51;68.90;101243.87;5028730;59;21190;-82
2021/08/12 01:52:19;;;;;;;10.20;6.93;;;;;;;16.40;68.99;101250.20;5028919;59;21654;-83
2021/08/12 01:57:26;;;;;;;7.43;5.30;;;;;;;16.43;69.55;101248.59;5028747;59;21216;-80
2021/08/12 02:02:35;;;;;;;5.77;5.17;;;;;;;16.47;69.35;101248.67;5032937;59;21203;-79
2021/08/12 02:07:47;;;;;;;7.67;5.20;;;;;;;16.32;68.92;101251.88;5043713;58;21685;-79
2021/08/12 02:12:54;;;;;;;11.38;5.15;;;;;;;16.19;69.30;101251.63;5041703;58;21149;-82
2021/08/12 02:18:00;;;;;;;8.30;6.07;;;;;;;16.04;69.71;101248.17;5033650;59;21185;-81
2021/08/12 02:23:10;;;;;;;11.10;7.23;;;;;;;15.91;70.04;101252.39;5031848;59;21336;-80
2021/08/12 02:28:18;;;;;;;9.20;5.77;;;;;;;15.88;70.37;101255.84;5032316;59;21184;-79
2021/08/12 02:33:31;;;;;;;9.40;5.70;;;;;;;15.95;70.75;101253.82;5031677;59;22383;-83
2021/08/12 02:38:38;;;;;;;;;;;;;;;16.03;70.86;101244.66;5035092;59;21457;-82
2021/08/12 02:43:46;;;;;;;6.60;5.70;;;;;;;16.00;70.68;101250.27;5031861;59;20447;-81
2021/08/12 02:48:55;;;;;;;13.20;6.00;;;;;;;15.92;70.62;101244.75;5031901;59;21571;-80
2021/08/12 02:54:05;;;;;;;6.93;5.73;;;;;;;15.88;70.91;101246.51;5006657;58;21144;-81
2021/08/12 02:59:13;;;;;;;8.03;5.37;;;;;;;15.82;71.05;101243.39;4971291;59;21192;-81
2021/08/12 03:04:22;;;;;;;9.93;6.70;;;;;;;15.78;70.97;101248.63;4955939;59;21109;-82
2021/08/12 03:09:29;;;;;;;11.17;7.30;;;;;;;15.86;71.19;101243.97;4961249;59;21196;-80
2021/08/12 03:14:38;;;;;;;10.13;6.03;;;;;;;15.85;70.96;101246.28;4961884;59;21640;-80
2021/08/12 03:19:45;;;;;;;10.93;7.20;;;;;;;15.79;71.09;101252.99;4925243;59;21232;-80
2021/08/12 03:24:53;;;;;;;29.67;12.90;;;;;;;15.74;71.46;101251.20;4907570;60;21187;-79
2021/08/12 03:29:59;;;;;;;11.27;8.03;;;;;;;15.79;71.74;101252.99;4907347;60;21179;-78
2021/08/12 03:35:06;;;;;;;14.17;6.43;;;;;;;15.88;71.64;101255.84;4912833;59;21159;-80
2021/08/12 03:40:13;;;;;;;16.30;7.13;;;;;;;15.95;71.47;101254.31;4949080;59;21175;-84
2021/08/12 03:45:19;;;;;;;9.63;6.70;;;;;;;15.95;71.00;101257.82;4934067;59;21159;-80
2021/08/12 03:50:25;;;;;;;10.17;6.67;;;;;;;15.92;70.96;101262.58;4930927;59;22048;-82
2021/08/12 03:55:31;;;;;;;8.47;5.70;;;;;;;15.92;71.17;101257.24;4987068;58;21156;-81
2021/08/12 04:00:37;;;;;;;13.23;6.57;;;;;;;15.83;70.81;101261.58;5022723;58;22089;-79
2021/08/12 04:05:43;;;;;;;11.17;7.33;;;;;;;15.69;70.79;101261.45;5058992;57;21157;-81
2021/08/12 04:10:50;;;;;;;22.30;10.57;;;;;;;15.73;71.46;101267.37;5035556;57;21089;-84
2021/08/12 04:15:57;;;;;;;12.00;7.30;;;;;;;15.79;71.89;101265.48;5030213;58;21208;-81
2021/08/12 04:21:03;;;;;;;9.50;6.27;;;;;;;15.77;71.52;101272.77;5054038;57;21156;-85
2021/08/12 04:26:09;;;;;;;11.30;7.03;;;;;;;15.59;71.46;101281.88;5056971;58;21144;-80
2021/08/12 04:31:16;;;;;;;17.00;7.27;;;;;;;15.38;71.68;101285.05;5040966;58;21754;-83
2021/08/12 04:36:22;;;;;;;11.10;7.00;;;;;;;15.21;72.17;101286.48;5049545;58;21198;-81
2021/08/12 04:41:28;;;;;;;8.07;5.97;;;;;;;15.15;72.88;101293.64;5005391;58;21161;-82
2021/08/12 04:46:34;;;;;;;14.83;7.57;;;;;;;15.18;73.42;101300.54;5021363;58;21105;-87
2021/08/12 04:51:42;;;;;;;9.63;7.40;;;;;;;15.14;73.85;101302.13;5007186;58;21114;-81
2021/08/12 04:56:47;;;;;;;7.77;5.73;;;;;;;15.21;74.13;101301.13;5001273;58;21156;-88
2021/08/12 05:01:55;;;;;;;10.10;5.80;;;;;;;15.32;74.30;101308.20;4984964;59;21216;-86
2021/08/12 05:07:02;;;;;;;15.77;6.27;;;;;;;15.37;74.60;101308.67;5089840;58;21140;-82
2021/08/12 05:12:08;;;;;;;7.90;6.23;;;;;;;15.35;74.79;101313.28;5025694;59;21130;-85
2021/08/12 05:17:16;;;;;;;10.63;7.03;;;;;;;15.30;75.00;101315.00;4994074;59;21140;-88
2021/08/12 05:22:24;;;;;;;8.03;6.23;;;;;;;15.41;75.57;101321.63;5046197;59;21677;-83
2021/08/12 05:27:30;;;;;;;9.77;6.10;;;;;;;15.56;75.98;101315.98;4979884;59;21254;-85
2021/08/12 05:32:37;;;;;;;8.67;5.73;;;;;;;15.72;76.20;101310.53;4966031;59;21107;-85
2021/08/12 05:37:43;;;;;;;8.13;6.03;;;;;;;15.94;75.97;101313.49;4965904;59;21169;-84
2021/08/12 05:42:50;;;;;;;10.00;6.73;;;;;;;16.25;76.26;101318.30;4965839;59;21631;-85
2021/08/12 05:47:56;;;;;;;10.63;6.30;;;;;;;16.55;76.42;101321.40;5044340;59;21535;-84
2021/08/12 05:53:03;;;;;;;11.30;5.23;;;;;;;16.86;76.27;101327.02;5046650;59;21209;-82
2021/08/12 05:58:08;;;;;;;6.97;4.80;;;;;;;17.08;75.13;101331.25;5020620;58;21200;-85
2021/08/12 06:03:15;;;;;;;17.53;5.50;;;;;;;17.08;74.24;101324.58;5068105;58;21220;-82
2021/08/12 06:08:21;;;;;;;6.53;4.63;;;;;;;17.10;74.26;101327.11;5006813;58;21078;-83
2021/08/12 06:13:27;;;;;;;11.73;4.90;;;;;;;17.20;74.45;101328.78;4985355;59;21101;-84
2021/08/12 06:18:33;;;;;;;7.43;4.93;;;;;;;17.33;74.02;101328.48;4966264;59;21104;-82
2021/08/12 06:23:39;;;;;;;12.10;5.30;;;;;;;17.45;74.15;101331.83;4935692;59;21546;-83
2021/08/12 06:28:46;;;;;;;6.67;4.53;;;;;;;17.64;74.04;101340.34;4923575;59;21163;-81
2021/08/12 06:33:52;;;;;;;5.70;5.10;;;;;;;17.83;74.26;101335.80;4906883;60;21632;-81
2021/08/12 06:39:02;;;;;;;4.73;3.47;;;;;;;18.06;73.70;101338.09;4935067;58;21110;-81
2021/08/12 06:44:08;;;;;;;4.10;3.40;;;;;;;18.30;73.46;101342.43;4946656;58;21200;-82
2021/08/12 06:49:13;;;;;;;5.60;3.80;;;;;;;18.52;71.15;101340.66;5008421;58;21132;-82
2021/08/12 06:54:21;;;;;;;5.03;4.43;;;;;;;18.72;71.01;101341.92;4967800;59;21198;-82
2021/08/12 06:59:27;;;;;;;4.83;3.63;;;;;;;18.90;70.32;101344.12;4904428;60;21792;-82
2021/08/12 07:04:33;;;;;;;6.45;4.40;;;;;;;19.08;69.66;101346.31;4931498;59;21158;-82
2021/08/12 07:09:39;;;;;;;4.37;3.65;;;;;;;19.29;69.37;101340.10;4985381;59;21152;-83
2021/08/12 07:14:45;;;;;;;3.52;3.22;;;;;;;19.49;67.51;101343.95;4985508;59;21148;-81
2021/08/12 07:19:50;;;;;;;2.92;2.62;;;;;;;19.69;67.15;101335.23;4985381;59;22092;-82
2021/08/12 07:24:56;;;;;;;6.35;3.47;;;;;;;19.87;65.65;101334.14;4985469;59;21184;-82
2021/08/12 07:30:02;;;;;;;4.60;3.52;;;;;;;20.07;65.78;101331.23;4985241;59;21172;-80
2021/08/12 07:35:08;;;;;;;4.25;2.90;;;;;;;20.28;65.44;101329.83;5021819;58;21189;-84
2021/08/12 07:40:15;;;;;;;3.22;3.00;;;;;;;20.50;64.23;101330.24;5057110;58;21213;-81
2021/08/12 07:45:21;;;;;;;3.47;3.17;;;;;;;20.59;61.84;101336.00;4964493;58;21759;-79
2021/08/12 07:50:26;;;;;;;4.72;3.12;;;;;;;20.68;60.23;101345.75;4958187;59;21180;-81
2021/08/12 07:55:32;;;;;;;7.40;3.67;;;;;;;20.81;59.59;101347.95;4936181;59;21218;-81
2021/08/12 08:00:38;;;;;;;5.42;3.02;;;;;;;20.97;59.39;101352.86;4998174;58;22450;-80
2021/08/12 08:05:43;;;;;;;4.30;2.75;;;;;;;21.09;56.62;101353.37;5024690;58;21208;-81
2021/08/12 08:10:49;;;;;;;3.70;3.20;;;;;;;21.22;57.55;101361.00;5047987;58;21183;-82
2021/08/12 08:15:55;;;;;;;6.65;3.75;;;;;;;21.44;58.79;101355.43;5068033;58;21078;-81
2021/08/12 08:21:01;;;;;;;4.78;3.50;;;;;;;21.53;57.58;101357.12;5070938;58;21152;-81
2021/08/12 08:26:07;;;;;;;5.28;3.15;;;;;;;21.64;58.41;101357.61;5074071;58;21128;-88
2021/08/12 08:31:13;;;;;;;3.02;2.60;;;;;;;21.79;55.82;101358.25;5066373;58;21145;-81
2021/08/12 08:36:20;;;;;;;3.33;2.95;;;;;;;21.90;55.34;101358.72;5077338;58;21148;-82
2021/08/12 08:41:26;;;;;;;5.90;3.37;;;;;;;22.05;56.61;101363.77;5078011;58;21108;-83
2021/08/12 08:46:32;;;;;;;3.25;2.95;;;;;;;22.21;54.57;101357.48;5063677;58;21144;-81
2021/08/12 08:51:39;;;;;;;10.48;3.50;;;;;;;22.23;54.39;101363.54;5060426;58;22219;-82
2021/08/12 08:56:47;;;;;;;3.25;2.92;;;;;;;22.29;54.13;101357.97;5049551;58;21117;-82
2021/08/12 09:01:55;;;;;;;3.47;3.17;;;;;;;22.48;53.66;101358.03;4980479;59;22143;-84
2021/08/12 09:07:03;;;;;;;3.55;3.15;;;;;;;22.60;54.15;101356.13;4970585;59;21184;-82
2021/08/12 09:12:09;;;;;;;4.45;3.20;;;;;;;22.68;53.44;101360.12;4980475;59;21511;-82
2021/08/12 09:17:26;;;;;;;4.22;3.25;;;;;;;22.77;52.33;101353.68;4966887;59;21179;-81
2021/08/12 09:22:49;;;;;;;3.92;2.00;;;;;;;22.93;53.68;101360.83;4953275;59;21683;-81
2021/08/12 09:28:18;;;;;;;2.52;2.27;;;;;;;23.09;51.53;101358.02;4980175;59;21089;-85
2021/08/12 09:33:24;;;;;;;2.77;2.58;;;;;;;23.20;51.66;101364.87;4986116;58;21212;-83
2021/08/12 09:38:31;;;;;;;4.65;3.37;;;;;;;23.13;51.36;101355.30;4980030;59;21170;-83
2021/08/12 09:43:38;;;;;;;3.67;2.72;;;;;;;23.23;50.49;101359.59;4977831;59;21152;-85
2021/08/12 09:48:49;;;;;;;2.85;2.67;;;;;;;23.40;50.51;101353.88;4984274;59;21149;-83
2021/08/12 09:54:05;;;;;;;4.47;2.22;;;;;;;23.54;50.05;101344.67;4984000;59;21128;-83
2021/08/12 09:59:11;;;;;;;3.35;2.62;;;;;;;23.41;49.64;101335.31;5013539;59;21149;-83
2021/08/12 10:04:27;;;;;;;4.87;2.83;;;;;;;23.45;49.36;101333.93;5045423;59;21201;-86
2021/08/12 10:09:41;;;;;;;3.50;2.52;;;;;;;23.42;49.37;101338.34;5036091;59;21184;-83
2021/08/12 10:14:46;;;;;;;3.40;2.85;;;;;;;23.43;49.85;101348.63;5023771;59;21115;-84
2021/08/12 10:19:52;;;;;;;3.08;2.77;;;;;;;23.60;49.71;101342.60;5023833;58;21509;-85
2021/08/12 10:24:58;;;;;;;3.00;2.70;;;;;;;23.78;48.98;101344.44;5014126;58;21241;-83
2021/08/12 10:30:05;;;;;;;5.12;2.98;;;;;;;23.99;48.30;101341.82;5040854;59;21124;-84
2021/08/12 10:35:11;;;;;;;4.62;3.27;;;;;;;24.05;48.43;101339.73;5040807;58;21149;-83
2021/08/12 10:40:18;;;;;;;4.50;3.20;;;;;;;24.34;47.73;101340.77;5042085;59;21164;-83
2021/08/12 10:45:26;;;;;;;3.42;2.77;;;;;;;24.22;46.69;101344.95;5041740;59;21180;-83
2021/08/12 10:50:38;;;;;;;3.52;3.10;;;;;;;24.19;47.53;101341.59;5041820;59;21153;-84
2021/08/12 10:55:55;;;;;;;122.47;12.88;;;;;;;24.27;48.15;101337.99;5041808;59;21160;-84
2021/08/12 11:01:07;;;;;;;120.37;12.65;;;;;;;24.57;47.66;101331.17;4998336;58;21089;-85
2021/08/12 11:06:26;;;;;;;7.72;2.25;;;;;;;24.82;47.07;101331.13;4981851;59;21182;-85
2021/08/12 11:11:38;;;;;;;3.35;2.77;;;;;;;25.00;44.11;101330.20;4984126;59;21561;-85
2021/08/12 11:16:51;;;;;;;2.05;1.87;;;;;;;25.18;45.98;101321.63;4967585;59;21207;-83
2021/08/12 11:21:59;;;;;;;4.03;2.67;;;;;;;25.50;44.35;101323.77;4979740;59;21164;-82
2021/08/12 11:27:06;;;;;;;5.85;3.08;;;;;;;25.27;44.48;101319.60;4980431;59;21510;-82
2021/08/12 11:32:14;;;;;;;3.37;2.12;;;;;;;25.09;45.67;101318.72;4980484;59;21156;-81
2021/08/12 11:37:30;;;;;;;4.83;2.37;;;;;;;24.94;45.08;101320.14;4967903;59;21213;-82
2021/08/12 11:42:44;;;;;;;5.33;2.20;;;;;;;24.78;44.59;101309.02;4977625;59;21526;-82
2021/08/12 11:48:00;;;;;;;2.80;2.60;;;;;;;24.79;45.06;101314.75;4980646;59;21170;-82
2021/08/12 11:53:06;;;;;;;4.75;3.00;;;;;;;25.03;45.47;101305.98;4984711;59;21120;-82
2021/08/12 11:58:11;;;;;;;12.85;2.92;;;;;;;25.40;44.29;101304.30;4981194;58;21266;-82
2021/08/12 12:03:22;;;;;;;2.85;2.25;;;;;;;25.38;42.96;101302.30;5045972;59;21149;-82
2021/08/12 12:08:29;;;;;;;2.85;2.33;;;;;;;25.37;44.48;101299.27;5042105;59;21208;-82
2021/08/12 12:13:34;;;;;;;2.30;2.10;;;;;;;25.59;44.81;101293.28;5041795;59;21129;-81
2021/08/12 12:18:44;;;;;;;2.27;1.90;;;;;;;25.65;45.17;101285.77;5041876;59;21082;-82
2021/08/12 12:23:51;;;;;;;2.35;1.65;;;;;;;25.77;43.79;101286.88;5041646;59;21146;-82
2021/08/12 12:28:56;;;;;;;2.52;1.50;;;;;;;25.92;43.26;101281.32;5041848;58;21153;-82
2021/08/12 12:34:04;;;;;;;4.45;2.42;;;;;;;26.13;41.15;101287.13;5043149;59;21602;-82
2021/08/12 12:39:09;;;;;;;2.05;1.80;;;;;;;26.11;42.18;101286.52;5045764;59;21143;-82
2021/08/12 12:44:16;;;;;;;5.72;2.08;;;;;;;26.14;41.33;101292.36;5023898;59;21637;-82
2021/08/12 12:49:30;;;;;;;1.90;1.80;;;;;;;26.04;41.73;101287.84;5028078;59;21163;-81
2021/08/12 12:54:38;;;;;;;3.87;1.98;;;;;;;25.94;41.67;101281.95;5042007;59;21129;-81
2021/08/12 12:59:53;;;;;;;9.23;1.85;;;;;;;25.76;42.33;101289.26;5034143;58;21108;-81
2021/08/12 13:05:02;;;;;;;5.20;2.02;;;;;;;25.62;43.64;101284.80;4982363;59;21906;-81
2021/08/12 13:10:26;;;;;;;2.05;1.85;;;;;;;25.84;44.31;101274.69;4978018;59;21163;-81
2021/08/12 13:15:31;;;;;;;2.42;2.22;;;;;;;25.98;42.76;101272.88;4973670;59;21196;-81
2021/08/12 13:20:46;;;;;;;2.20;2.10;;;;;;;25.92;42.48;101271.83;4982685;58;21105;-82
2021/08/12 13:25:57;;;;;;;5.80;1.90;;;;;;;25.97;42.05;101274.78;4984729;58;21156;-84
2021/08/12 13:31:17;;;;;;;1.75;1.62;;;;;;;26.07;43.00;101265.75;4920373;59;21530;-85
2021/08/12 13:36:23;;;;;;;1.70;1.62;;;;;;;26.31;42.07;101262.20;4906822;60;21586;-84
2021/08/12 13:41:30;;;;;;;5.05;1.85;;;;;;;26.42;41.25;101263.83;4906880;60;21250;-85
2021/08/12 13:46:36;;;;;;;2.00;1.80;;;;;;;26.22;41.87;101262.36;4922316;59;21172;-85
2021/08/12 13:51:42;;;;;;;2.05;1.90;;;;;;;26.36;41.86;101252.42;4981507;59;21172;-81
2021/08/12 13:56:48;;;;;;;5.20;1.80;;;;;;;26.59;41.30;101252.88;4948384;59;21156;-81
2021/08/12 14:01:55;;;;;;;4.80;2.10;;;;;;;26.86;40.76;101249.70;4955923;59;21579;-81
2021/08/12 14:07:01;;;;;;;2.02;1.80;;;;;;;27.10;40.24;101240.63;4994228;59;21244;-81
2021/08/12 14:12:07;;;;;;;1.95;1.85;;;;;;;27.20;40.38;101245.94;4995042;59;21275;-80
2021/08/12 14:37:54;;;;;;;6.60;1.90;;;;;;;27.57;39.40;101243.62;5171708;55;21013;-81
2021/08/12 14:43:00;;;;;;;5.35;1.90;;;;;;;27.75;37.52;101237.52;5129378;57;21158;-81
2021/08/12 14:48:06;;;;;;;5.95;2.62;;;;;;;27.76;37.72;101229.66;5097455;58;21162;-81
2021/08/12 14:53:12;;;;;;;3.95;2.08;;;;;;;27.83;37.76;101227.22;5097492;58;21204;-81
2021/08/12 14:58:17;;;;;;;2.37;1.72;;;;;;;27.99;38.17;101231.34;5101187;58;21603;-81
2021/08/12 15:03:23;;;;;;;2.30;2.10;;;;;;;28.04;35.50;101223.89;5118077;58;21159;-80
2021/08/12 15:08:29;;;;;;;4.62;1.98;;;;;;;27.99;36.13;101221.30;5118152;58;21206;-81
2021/08/12 15:13:35;;;;;;;1.77;1.65;;;;;;;27.98;35.78;101216.91;5118457;58;21146;-80
2021/08/12 15:18:41;;;;;;;3.98;1.98;;;;;;;27.96;36.13;101219.00;5110537;58;21220;-80
2021/08/12 15:23:46;;;;;;;4.33;2.15;;;;;;;27.95;36.88;101211.92;5106869;58;21186;-80
2021/08/12 15:28:53;;;;;;;3.25;1.92;;;;;;;28.02;36.89;101215.95;5144183;57;21168;-80
2021/08/12 15:33:58;;;;;;;7.08;1.82;;;;;;;27.99;36.57;101208.22;5170384;56;21178;-79
2021/08/12 15:39:05;;;;;;;2.62;1.80;;;;;;;27.98;37.01;101207.39;5168434;57;21453;-83
2021/08/12 15:44:10;;;;;;;2.30;2.10;;;;;;;28.01;36.75;101207.48;5169292;57;21183;-81
2021/08/12 15:49:17;;;;;;;3.50;1.90;;;;;;;28.06;36.42;101211.76;5169258;57;21255;-81
2021/08/12 15:54:23;;;;;;;2.30;2.10;;;;;;;28.13;36.25;101208.46;5169390;57;21682;-79
2021/08/12 15:59:29;;;;;;;6.45;3.65;;;;;;;27.88;35.71;101198.87;5169327;57;21259;-81
2021/08/12 16:04:35;;;;;;;3.80;1.70;;;;;;;27.74;36.71;101203.22;5169268;57;22371;-80
2021/08/12 16:09:41;;;;;;;10.75;2.30;;;;;;;27.71;36.58;101203.64;5169293;57;21179;-79
2021/08/12 16:14:47;;;;;;;6.70;2.55;;;;;;;27.70;37.14;101198.73;5159229;57;21235;-79
2021/08/12 16:19:54;;;;;;;2.27;1.90;;;;;;;27.79;36.77;101197.98;5101892;57;21246;-79
2021/08/12 16:25:00;;;;;;;7.42;2.40;;;;;;;27.76;36.49;101200.60;5092772;57;21249;-81
2021/08/12 16:30:06;;;;;;;2.47;2.25;;;;;;;27.75;36.78;101204.37;5144078;57;21239;-80
2021/08/12 16:35:12;;;;;;;9.55;1.90;;;;;;;27.76;36.69;101202.48;5173961;56;21217;-80
2021/08/12 16:40:18;;;;;;;15.65;4.12;;;;;;;27.68;36.28;101202.70;5204288;57;21120;-80
2021/08/12 16:45:23;;;;;;;2.62;2.42;;;;;;;27.54;36.91;101201.89;5203902;57;21226;-80
2021/08/12 16:50:29;;;;;;;16.85;2.30;;;;;;;27.56;37.76;101197.08;5204085;57;22435;-81
2021/08/12 16:55:34;;;;;;;4.97;1.98;;;;;;;27.51;37.74;101200.42;5194170;57;21541;-79
2021/08/12 17:00:40;;;;;;;4.55;2.25;;;;;;;27.44;37.71;101197.44;5130249;57;21158;-80
2021/08/12 17:05:46;;;;;;;3.95;2.00;;;;;;;27.29;37.66;101197.16;5182867;57;21182;-79
2021/08/12 17:10:52;;;;;;;5.65;2.40;;;;;;;27.20;37.80;101194.33;5213486;57;21102;-81
2021/08/12 17:15:57;;;;;;;2.75;2.37;;;;;;;27.14;38.51;101195.20;5213391;57;21501;-81
2021/08/12 17:21:04;;;;;;;14.83;5.25;;;;;;;27.15;38.79;101190.08;5213439;57;21112;-80
2021/08/12 17:26:10;;;;;;;12.63;3.67;;;;;;;27.07;39.11;101195.72;5212965;57;21190;-80
2021/08/12 17:31:16;;;;;;;14.93;3.10;;;;;;;26.96;39.19;101196.36;5134937;57;21159;-80
2021/08/12 17:36:22;;;;;;;4.42;2.60;;;;;;;26.89;39.60;101196.84;5127690;56;21100;-79
2021/08/12 17:41:28;;;;;;;3.55;2.90;;;;;;;26.84;39.88;101198.84;5104135;57;21273;-79
2021/08/12 17:46:34;;;;;;;18.40;8.40;;;;;;;26.78;40.21;101201.55;5127665;57;21593;-80
2021/08/12 17:51:40;;;;;;;10.43;3.80;;;;;;;26.67;40.81;101209.80;5113656;57;21147;-80
2021/08/12 17:56:46;;;;;;;16.87;7.10;;;;;;;26.55;41.40;101208.75;5094238;58;21170;-79
2021/08/12 18:01:52;;;;;;;19.50;5.72;;;;;;;26.47;42.38;101206.22;5094668;57;21171;-79
2021/08/12 18:06:59;;;;;;;5.15;3.50;;;;;;;26.42;42.98;101206.86;5064087;57;25324;-79
2021/08/12 18:12:06;;;;;;;7.37;5.42;;;;;;;26.25;43.31;101208.25;4921951;59;21643;-79
2021/08/12 18:17:12;;;;;;;13.22;3.52;;;;;;;26.16;43.79;101209.45;4979557;59;21132;-80
2021/08/12 18:22:19;;;;;;;11.50;3.77;;;;;;;26.06;44.21;101211.73;4973821;59;21174;-80
2021/08/12 18:27:26;;;;;;;6.28;2.85;;;;;;;25.98;44.70;101215.95;4937294;59;21179;-79
2021/08/12 18:32:31;;;;;;;18.82;5.92;;;;;;;25.85;45.15;101214.88;4943339;59;22305;-80
2021/08/12 18:37:38;;;;;;;34.70;6.15;;;;;;;25.80;46.02;101213.83;4924722;59;21219;-80
2021/08/12 18:42:43;;;;;;;33.15;5.95;;;;;;;25.70;45.98;101227.73;4915027;60;21218;-79
2021/08/12 18:47:49;;;;;;;74.50;10.75;;;;;;;25.57;46.58;101229.82;4867400;60;21238;-80
2021/08/12 18:52:54;;;;;;;70.10;12.82;;;;;;;25.44;47.17;101232.97;4937864;60;21215;-79
2021/08/12 18:58:00;;;;;;;42.33;12.80;;;;;;;25.34;47.53;101233.85;4937653;60;21636;-78
2021/08/12 19:03:06;;;;;;;65.72;14.33;;;;;;;25.23;47.98;101236.05;4922294;60;21272;-80
2021/08/12 19:08:12;;;;;;;47.55;14.25;;;;;;;25.11;48.32;101243.05;4898956;60;21123;-80
2021/08/12 19:13:17;;;;;;;55.85;14.87;;;;;;;24.98;48.93;101244.30;4936808;60;21510;-80
2021/08/12 19:18:24;;;;;;;61.65;15.85;;;;;;;24.87;49.18;101253.77;4893604;60;21112;-81
2021/08/12 19:23:29;;;;;;;64.70;17.15;;;;;;;24.79;49.53;101250.34;4897683;60;21233;-82
2021/08/12 19:28:35;;;;;;;57.33;13.48;;;;;;;24.66;49.76;101252.41;4892733;60;21186;-80
2021/08/12 19:33:41;;;;;;;27.45;7.95;;;;;;;24.58;50.02;101249.00;4938226;60;21211;-81
2021/08/12 19:38:47;;;;;;;23.45;7.20;;;;;;;24.46;49.65;101250.00;4972691;59;21128;-81
2021/08/12 19:43:53;;;;;;;30.60;6.28;;;;;;;24.34;49.65;101245.62;5017339;59;21267;-79
2021/08/12 19:48:59;;;;;;;28.73;6.53;;;;;;;24.20;49.97;101245.95;4991275;59;21634;-81
2021/08/12 19:54:05;;;;;;;24.23;5.70;;;;;;;24.08;50.31;101247.48;4990175;59;21214;-79
2021/08/12 19:59:10;;;;;;;36.08;10.08;;;;;;;23.92;50.54;101247.69;4977601;59;21170;-80
2021/08/12 20:04:16;;;;;;;67.45;14.83;;;;;;;23.79;51.09;101247.52;4979555;59;21127;-81
2021/08/12 20:09:22;;;;;;;62.15;13.75;;;;;;;23.62;51.57;101252.78;4968114;58;69818;-82
2021/08/12 20:14:32;;;;;;;43.55;10.28;;;;;;;23.49;52.06;101254.76;4967639;59;22151;-82
2021/08/12 20:19:36;;;;;;;101.45;10.93;;;;;;;23.42;52.41;101261.39;4959701;59;21171;-81
2021/08/12 20:24:41;;;;;;;76.07;10.75;;;;;;;23.33;52.65;101251.72;4970719;59;21164;-81
2021/08/12 20:29:47;;;;;;;42.20;9.85;;;;;;;23.20;52.49;101240.72;4967320;55;25776;-81
2021/08/12 20:34:52;;;;;;;17.25;6.67;;;;;;;23.04;52.61;101252.50;4982896;59;21110;-81
2021/08/12 20:39:58;;;;;;;16.05;6.90;;;;;;;22.87;52.98;101253.66;5008121;58;21169;-82
2021/08/12 20:45:07;;;;;;;12.33;7.10;;;;;;;22.71;53.39;101254.59;5009718;59;21165;-81
2021/08/12 20:50:13;;;;;;;19.82;8.90;;;;;;;22.52;53.68;101252.88;5009968;59;21173;-80
2021/08/12 20:55:18;;;;;;;25.50;9.15;;;;;;;22.33;54.12;101250.13;5009548;59;21169;-81
2021/08/12 21:00:25;;;;;;;13.98;7.15;;;;;;;22.25;54.42;101250.19;5008518;59;21718;-81
2021/08/12 21:05:34;;;;;;;17.67;6.95;;;;;;;22.16;54.94;101250.72;5009262;59;21122;-80
2021/08/12 21:10:42;;;;;;;17.65;7.45;;;;;;;22.18;55.38;101257.28;5009634;59;21118;-80
2021/08/12 21:15:47;;;;;;;20.17;7.58;;;;;;;22.10;55.42;101252.28;5009720;59;21686;-81
2021/08/12 21:20:53;;;;;;;15.78;8.80;;;;;;;21.99;55.39;101257.20;5009762;59;21122;-82
2021/08/12 21:25:59;;;;;;;16.80;8.05;;;;;;;21.84;55.54;101246.83;5009012;59;21208;-81
2021/08/12 21:31:05;;;;;;;25.37;7.53;;;;;;;21.66;55.80;101250.59;5009270;59;21513;-81
2021/08/12 21:36:11;;;;;;;17.75;6.20;;;;;;;21.53;56.07;101243.56;5005375;59;21233;-81
2021/08/12 21:41:17;;;;;;;10.98;5.72;;;;;;;21.38;56.27;101255.55;5005272;58;21572;-81
2021/08/12 21:46:22;;;;;;;9.98;5.60;;;;;;;21.20;56.71;101259.44;5005557;58;21310;-80
2021/08/12 21:51:28;;;;;;;6.12;4.15;;;;;;;21.18;57.32;101260.91;5005300;59;21169;-80
2021/08/12 21:56:34;;;;;;;4.58;4.03;;;;;;;21.10;57.26;101264.09;5005691;59;21119;-81
2021/08/12 22:01:39;;;;;;;4.67;4.10;;;;;;;20.98;57.52;101259.07;5005568;58;21178;-82
2021/08/12 22:06:45;;;;;;;4.85;4.15;;;;;;;20.95;58.23;101259.41;5005359;58;21309;-82
2021/08/12 22:11:54;;;;;;;6.42;4.60;;;;;;;20.95;58.14;101255.88;5005363;59;21548;-81
2021/08/12 22:17:00;;;;;;;5.42;4.17;;;;;;;20.92;58.51;101271.02;5005266;59;21226;-81
2021/08/12 22:22:05;;;;;;;8.35;4.70;;;;;;;20.91;58.55;101279.59;5005264;59;21173;-81
2021/08/12 22:27:11;;;;;;;10.23;5.80;;;;;;;20.86;58.62;101279.25;5005275;59;21165;-81
2021/08/12 22:32:17;;;;;;;4.70;4.30;;;;;;;20.76;58.58;101278.58;5005875;58;21188;-81
2021/08/12 22:37:22;;;;;;;4.22;3.83;;;;;;;20.65;58.70;101282.91;5009275;59;21117;-80
2021/08/12 22:42:28;;;;;;;5.12;3.75;;;;;;;20.55;58.84;101280.89;5009304;58;21562;-81
2021/08/12 22:47:34;;;;;;;8.75;3.90;;;;;;;20.41;58.95;101283.71;5009608;59;21677;-80
2021/08/12 22:52:42;;;;;;;8.33;3.65;;;;;;;20.34;59.28;101283.48;5009881;59;21200;-81
2021/08/12 22:57:48;;;;;;;5.72;3.98;;;;;;;20.28;59.49;101293.55;5010119;58;21653;-80
2021/08/12 23:02:54;;;;;;;5.72;3.17;;;;;;;20.19;59.42;101290.48;5009979;59;21178;-80
2021/08/12 23:07:59;;;;;;;4.87;3.40;;;;;;;20.00;59.29;101296.14;5009816;59;21184;-81
2021/08/12 23:13:05;;;;;;;4.45;3.17;;;;;;;19.85;59.88;101296.41;5009125;58;21229;-81
2021/08/12 23:18:11;;;;;;;9.05;4.00;;;;;;;19.68;60.10;101294.13;5009783;59;22148;-81
2021/08/12 23:23:16;;;;;;;7.65;4.60;;;;;;;19.48;60.29;101293.97;5009877;59;21118;-80
2021/08/12 23:28:22;;;;;;;14.35;5.62;;;;;;;19.35;60.71;101301.59;5009723;59;21181;-80
2021/08/12 23:33:28;;;;;;;7.47;5.95;;;;;;;19.23;61.18;101292.97;5007995;59;21114;-80
2021/08/12 23:38:34;;;;;;;6.83;5.22;;;;;;;19.25;61.60;101298.48;5005649;59;21166;-79
2021/08/12 23:43:40;;;;;;;8.38;5.65;;;;;;;19.27;61.84;101299.17;5005554;58;21559;-81
2021/08/12 23:48:46;;;;;;;19.27;4.87;;;;;;;19.35;62.16;101299.75;5005637;59;21165;-80
2021/08/12 23:53:52;;;;;;;5.78;5.17;;;;;;;19.36;61.81;101304.62;5005633;59;21177;-80
2021/08/12 23:58:59;;;;;;;6.60;5.22;;;;;;;19.35;62.16;101307.80;5005605;58;21188;-80
